createdAt,value
2023-03-27T15:10:38.739Z,11.70
2023-03-27T15:13:13.650Z,10.00
2023-03-27T15:15:50.782Z,9.50
2023-03-27T15:19:16.938Z,8.60
2023-03-27T15:22:05.456Z,10.00
2023-03-27T15:24:51.393Z,9.90
2023-03-27T15:27:33.093Z,9.80
2023-03-27T15:30:00.603Z,11.70
2023-03-27T15:32:42.505Z,11.40
2023-03-27T15:38:35.924Z,10.00
2023-03-27T15:41:15.600Z,9.20
2023-03-27T15:43:45.650Z,10.60
2023-03-27T15:49:06.642Z,10.10
2023-03-27T15:51:33.884Z,8.80
2023-03-27T15:54:26.532Z,11.00
2023-03-27T15:57:10.351Z,9.60
2023-03-27T15:59:52.953Z,11.70
2023-03-27T16:02:25.282Z,10.30
2023-03-27T16:04:56.925Z,11.40
2023-03-27T16:07:42.096Z,8.00
2023-03-27T16:10:11.972Z,9.80
2023-03-27T16:12:39.162Z,13.00
2023-03-27T16:15:27.089Z,10.10
2023-03-27T16:17:57.577Z,11.40
2023-03-27T16:20:45.513Z,10.30
2023-03-27T16:23:13.120Z,10.30
2023-03-27T16:25:41.135Z,10.10
2023-03-27T16:28:09.390Z,9.70
2023-03-27T16:30:41.848Z,10.30
2023-03-27T16:33:22.033Z,10.40
2023-03-27T16:36:10.134Z,12.60
2023-03-27T16:38:57.804Z,12.40
2023-03-27T16:41:24.793Z,13.70
2023-03-27T16:43:51.759Z,14.50
2023-03-27T16:46:27.468Z,15.60
2023-03-27T16:48:55.786Z,14.70
2023-03-27T16:51:27.139Z,17.00
2023-03-27T16:53:54.421Z,17.60
2023-03-27T16:56:21.727Z,15.40
2023-03-27T16:58:48.692Z,18.50
2023-03-27T17:01:16.006Z,15.00
2023-03-27T17:03:43.187Z,17.90
2023-03-27T17:06:12.129Z,16.50
2023-03-27T17:08:39.346Z,18.90
2023-03-27T17:11:12.202Z,17.70
2023-03-27T17:13:43.367Z,15.10
2023-03-27T17:16:11.737Z,16.00
2023-03-27T17:18:40.168Z,16.70
2023-03-27T17:21:07.839Z,16.00
2023-03-27T17:23:35.165Z,17.00
2023-03-27T17:26:08.015Z,16.00
2023-03-27T17:28:37.331Z,15.40
2023-03-27T17:31:05.623Z,15.70
2023-03-27T17:36:10.212Z,13.30
2023-03-27T17:38:39.979Z,15.40
2023-03-27T17:41:08.013Z,15.30
2023-03-27T17:43:35.121Z,15.60
2023-03-27T17:46:02.401Z,13.50
2023-03-27T17:48:36.048Z,15.80
2023-03-27T17:51:09.274Z,13.40
